Northlander — ZGAE — position and weather

sailwx.info

Track history (hours):
 
Tides and Currents Weather Stations Pressure Air Temp Water Temp Dewpoint Dewpoint Depression Visibility Wind Speed Wind Dir Waves Ship Positions

Northlander

Last reported at 2018-Jun-04 00:04 UTC. Time now 2018-Jun-24 20:33 UTC.
Position N 37°50' E 015°57'.
Warning: this ship's position is 20 days out of date.

Length 38 m; draft 2.5 m.

Type: Pleasure craft. MMSI: 319078000.

Date/timePositionNaut miles runAvg speedWind from/ knotsBaromVisibWave heightAir tempDewpointWater temp
2018-Jun-04 00:04N 37°50' E 015°57'30 8.8
2018-Jun-03 20:41N 38°15' E 015°37'5 8.3
2018-Jun-03 20:02N 38°20' E 015°40'012.0
2018-Jun-03 20:00N 38°20' E 015°40'100 7.6
2018-Jun-03 06:53N 38°45' E 013°36'512.4
2018-Jun-03 06:30N 38°45' E 013°30'612.6
2018-Jun-03 06:00N 38°46' E 013°22'3412.4
2018-Jun-03 03:16N 38°46' E 012°38'312.0
2018-Jun-03 03:00N 38°46' E 012°34'611.9
2018-Jun-03 02:30N 38°46' E 012°27'43411.7
2018-Jun-01 13:29N 39°12' E 003°09'611.5
2018-Jun-01 13:00N 39°13' E 003°02'611.8
2018-Jun-01 12:29N 39°17' E 002°56'611.8
2018-Jun-01 11:59N 39°20' E 002°49'611.9
2018-Jun-01 11:30N 39°23' E 002°43'611.7
2018-Jun-01 11:00N 39°28' E 002°38'510.0
2018-Jun-01 10:30N 39°31' E 002°34'0 0.7
2018-Jun-01 10:00N 39°32' E 002°34'2 4.8
2018-Jun-01 09:29N 39°32' E 002°37'2 4.7
2018-Jun-01 08:59N 39°32' E 002°40'1 1.1
2018-Jun-01 08:30N 39°32' E 002°39'4 6.7
2018-Jun-01 07:59N 39°31' E 002°35'1 2.0
2018-Jun-01 07:26N 39°32' E 002°33'0 0.0
2018-Jun-01 06:59N 39°32' E 002°33'0 0.0
2018-Jun-01 06:29N 39°32' E 002°33'0 0.0
2018-Jun-01 05:56N 39°32' E 002°33'0 0.0
2018-Jun-01 05:29N 39°32' E 002°33'0 0.0
2018-Jun-01 04:59N 39°32' E 002°33'0 0.0
2018-Jun-01 04:26N 39°32' E 002°33'0 0.0
2018-Jun-01 03:59N 39°32' E 002°33'0 0.0
2018-Jun-01 03:29N 39°32' E 002°33'0 0.0
2018-Jun-01 02:59N 39°32' E 002°33'0 0.0
2018-Jun-01 02:29N 39°32' E 002°33'0 0.0
2018-Jun-01 01:59N 39°32' E 002°33'0 0.0
2018-Jun-01 01:29N 39°32' E 002°33'0 0.0
2018-Jun-01 00:59N 39°32' E 002°33'0 0.0
2018-Jun-01 00:29N 39°32' E 002°33'0 0.0
2018-May-31 23:59N 39°32' E 002°33'0 0.0
2018-May-31 23:29N 39°32' E 002°33'0 0.0
2018-May-31 22:59N 39°32' E 002°33'0 0.0
2018-May-31 22:29N 39°32' E 002°33'0 0.0
2018-May-31 21:59N 39°32' E 002°33'0 0.0
2018-May-31 21:29N 39°32' E 002°34'0 0.0
2018-May-31 20:59N 39°32' E 002°33'0 0.0
2018-May-31 20:29N 39°32' E 002°33'0 0.0
2018-May-31 19:59N 39°32' E 002°34'0 0.0
2018-May-31 19:29N 39°32' E 002°34'0 0.0
2018-May-31 18:56N 39°32' E 002°33'0 0.0
2018-May-31 18:29N 39°32' E 002°33'0 0.1
2018-May-31 17:59N 39°32' E 002°34'0 0.0
2018-May-31 17:23N 39°32' E 002°34'0 0.1
2018-May-31 16:59N 39°32' E 002°33'0 0.0
2018-May-31 16:26N 39°32' E 002°34'0 0.0
2018-May-31 15:59N 39°32' E 002°34'0 0.0
2018-May-31 15:29N 39°32' E 002°34'0 0.0
2018-May-31 14:59N 39°32' E 002°34'1 2.6
2018-May-31 14:30N 39°31' E 002°35'3 6.1
2018-May-31 14:00N 39°33' E 002°38'1 1.3
2018-May-31 13:29N 39°33' E 002°38'0 0.0
2018-May-31 12:59N 39°33' E 002°38'0 0.0
2018-May-31 12:29N 39°33' E 002°38'0 0.0
2018-May-31 11:59N 39°33' E 002°38'0 0.0
2018-May-31 11:29N 39°33' E 002°38'0 0.0
2018-May-31 10:59N 39°33' E 002°38'0 0.0
2018-May-31 10:29N 39°33' E 002°38'0 0.0
2018-May-31 09:59N 39°33' E 002°38'0 0.0
2018-May-31 09:29N 39°33' E 002°38'0 0.0
2018-May-31 08:59N 39°33' E 002°38'0 0.0
2018-May-31 08:29N 39°33' E 002°38'0 0.0
2018-May-31 07:59N 39°33' E 002°38'0 0.0
2018-May-31 07:29N 39°33' E 002°38'0 0.0
2018-May-31 06:59N 39°33' E 002°38'0 0.0
2018-May-31 06:29N 39°33' E 002°38'0 0.0
2018-May-31 05:59N 39°33' E 002°38'0 0.0
2018-May-31 05:29N 39°33' E 002°38'0 0.0
2018-May-31 05:00N 39°33' E 002°38'0 0.0
2018-May-31 04:28N 39°33' E 002°38'0 0.0
2018-May-31 03:59N 39°33' E 002°38'0 0.0
2018-May-31 03:29N 39°33' E 002°38'0 0.0
2018-May-31 02:59N 39°33' E 002°38'0 0.0
2018-May-31 02:29N 39°33' E 002°38'0 0.0
2018-May-31 01:59N 39°33' E 002°38'0 0.0
2018-May-31 01:30N 39°33' E 002°38'0 0.0
2018-May-31 01:00N 39°33' E 002°38'0 0.0
2018-May-31 00:30N 39°33' E 002°38'0 0.0
2018-May-31 00:00N 39°33' E 002°38'0 0.0
2018-May-30 23:30N 39°33' E 002°38'0 0.0
2018-May-30 23:00N 39°33' E 002°38'0 0.0
2018-May-30 22:30N 39°33' E 002°38'0 0.0
2018-May-30 22:00N 39°33' E 002°38'0 0.0
2018-May-30 21:30N 39°33' E 002°38'0 0.0
2018-May-30 21:00N 39°33' E 002°38'0 0.0
2018-May-30 20:30N 39°33' E 002°38'0 0.0
2018-May-30 20:00N 39°33' E 002°38'0 0.0
2018-May-30 19:30N 39°33' E 002°38'0 0.0
2018-May-30 19:00N 39°33' E 002°38'0 0.0
2018-May-30 18:30N 39°33' E 002°38'0 0.0
2018-May-30 17:54N 39°33' E 002°38'0 0.0
2018-May-30 17:27N 39°33' E 002°38'0 0.0
2018-May-30 17:00N 39°33' E 002°38'0 0.0
2018-May-30 16:30N 39°33' E 002°38'0 0.0
2018-May-30 16:00N 39°33' E 002°38'0 0.0
2018-May-30 15:30N 39°33' E 002°38'0 0.0
2018-May-30 15:00N 39°33' E 002°38'0 0.0
2018-May-30 14:30N 39°33' E 002°38'0 0.0
2018-May-30 14:00N 39°33' E 002°38'0 0.0
2018-May-30 13:30N 39°33' E 002°38'0 0.0
2018-May-30 13:00N 39°33' E 002°38'0 0.0
2018-May-30 12:30N 39°33' E 002°38'0 0.0
2018-May-30 12:00N 39°33' E 002°38'0 0.0
2018-May-30 11:30N 39°33' E 002°38'0 0.0
2018-May-30 11:00N 39°33' E 002°38'0 0.0
2018-May-30 10:24N 39°33' E 002°38'0 0.0
2018-May-30 10:00N 39°33' E 002°38'0 0.0
2018-May-30 09:30N 39°33' E 002°38'0 0.0
2018-May-30 09:00N 39°33' E 002°38'0 0.0
2018-May-30 08:27N 39°33' E 002°38'0 0.0
2018-May-30 08:00N 39°33' E 002°38'0 0.0
2018-May-30 07:30N 39°33' E 002°38'0 0.0
2018-May-30 07:00N 39°33' E 002°38'0 0.0
2018-May-30 06:30N 39°33' E 002°38'0 0.0
2018-May-30 06:00N 39°33' E 002°38'0 0.0
2018-May-30 05:30N 39°33' E 002°38'0 0.0
2018-May-30 05:00N 39°33' E 002°38'0 0.0
2018-May-30 04:30N 39°33' E 002°38'0 0.0
2018-May-30 04:00N 39°33' E 002°38'0 0.0
2018-May-30 03:30N 39°33' E 002°38'0 0.0
2018-May-30 03:00N 39°33' E 002°38'0 0.0
2018-May-30 02:30N 39°33' E 002°38'0 0.0
2018-May-30 02:00N 39°33' E 002°38'0 0.0
2018-May-30 01:30N 39°33' E 002°38'0 0.0
2018-May-30 01:00N 39°33' E 002°38'0 0.0
2018-May-30 00:30N 39°33' E 002°38'0 0.0
2018-May-30 00:00N 39°33' E 002°38'0 0.0
2018-May-29 23:30N 39°33' E 002°38'0 0.0
2018-May-29 23:00N 39°33' E 002°38'0 0.0
2018-May-29 22:30N 39°33' E 002°38'0 0.0
2018-May-29 22:00N 39°33' E 002°38'0 0.0
2018-May-29 21:30N 39°33' E 002°38'0 0.0
2018-May-29 21:00N 39°33' E 002°38'0 0.0
2018-May-29 20:30N 39°33' E 002°38'0 0.0
2018-May-29 20:00N 39°33' E 002°38'0 0.0
2018-May-29 19:30N 39°33' E 002°38'0 0.0
2018-May-29 19:00N 39°33' E 002°38'0 0.0
2018-May-29 18:30N 39°33' E 002°38'0 0.0
2018-May-29 18:00N 39°33' E 002°38'0 0.0
2018-May-29 17:30N 39°33' E 002°38'0 0.0
2018-May-29 17:00N 39°33' E 002°38'0 0.0
2018-May-29 16:30N 39°33' E 002°38'0 0.0
2018-May-29 16:00N 39°33' E 002°38'0 0.0
2018-May-29 15:30N 39°33' E 002°38'0 0.0
2018-May-29 15:00N 39°33' E 002°38'0 0.0
2018-May-29 14:30N 39°33' E 002°38'0 0.0
2018-May-29 14:00N 39°33' E 002°38'0 0.0
2018-May-29 13:30N 39°33' E 002°38'0 0.1
2018-May-29 13:00N 39°33' E 002°38'0 0.0
2018-May-29 12:30N 39°33' E 002°38'0 0.0
2018-May-29 12:00N 39°33' E 002°38'0 0.0
2018-May-29 11:27N 39°33' E 002°38'0 0.0
2018-May-29 11:00N 39°33' E 002°38'0 0.0
2018-May-29 10:30N 39°33' E 002°38'0 0.0
2018-May-29 10:00N 39°33' E 002°38'0 0.0
2018-May-29 09:30N 39°33' E 002°38'0 0.0
2018-May-29 09:00N 39°33' E 002°38'0 0.0
2018-May-29 08:30N 39°33' E 002°38'0 0.0
2018-May-29 08:00N 39°33' E 002°38'0 0.0
2018-May-29 07:24N 39°33' E 002°38'0 0.1
2018-May-29 07:00N 39°33' E 002°38'0 0.0
2018-May-29 06:30N 39°33' E 002°38'0 0.0
2018-May-29 06:00N 39°33' E 002°38'0 0.0
2018-May-29 05:30N 39°33' E 002°38'0 0.0
2018-May-29 05:00N 39°33' E 002°38'0 0.0
2018-May-29 04:28N 39°33' E 002°38'0 0.0
2018-May-29 03:58N 39°33' E 002°38'0 0.0
2018-May-29 03:28N 39°33' E 002°38'0 0.0
2018-May-29 02:58N 39°33' E 002°38'0 0.0
2018-May-29 02:28N 39°33' E 002°38'0 0.0
2018-May-29 01:58N 39°33' E 002°38'0 0.0
2018-May-29 01:28N 39°33' E 002°38'0 0.0
2018-May-29 00:58N 39°33' E 002°38'0 0.0
2018-May-29 00:28N 39°33' E 002°38'0 0.0
2018-May-28 23:58N 39°33' E 002°38'0 0.0
2018-May-28 23:25N 39°33' E 002°38'0 0.0
2018-May-28 22:55N 39°33' E 002°38'0 0.0
2018-May-28 22:28N 39°33' E 002°38'0 0.0
2018-May-28 21:58N 39°33' E 002°38'0 0.0
2018-May-28 21:28N 39°33' E 002°38'0 0.0
2018-May-28 20:58N 39°33' E 002°38'0 0.0
2018-May-28 20:25N 39°33' E 002°38'0 0.0
2018-May-28 19:58N 39°33' E 002°38'0 0.0
2018-May-28 19:28N 39°33' E 002°38'0 0.0
2018-May-28 18:58N 39°33' E 002°38'0 0.0
2018-May-28 18:28N 39°33' E 002°38'0 0.0
2018-May-28 17:58N 39°33' E 002°38'0 0.0
2018-May-28 17:28N 39°33' E 002°38'0 0.0
2018-May-28 16:55N 39°33' E 002°38'0 0.0
2018-May-28 16:28N 39°33' E 002°38'0 0.0
2018-May-28 15:58N 39°33' E 002°38'0 0.0
2018-May-28 15:28N 39°33' E 002°38'0 0.0
2018-May-28 14:58N 39°33' E 002°38'0 0.0
2018-May-28 14:28N 39°33' E 002°38'0 0.0
2018-May-28 13:58N 39°33' E 002°38'0 0.0
2018-May-28 13:28N 39°33' E 002°38'0 0.0
2018-May-28 12:58N 39°33' E 002°38'0 0.0
2018-May-28 12:28N 39°33' E 002°38'0 0.0
2018-May-28 11:58N 39°33' E 002°38'0 0.0
2018-May-28 11:28N 39°33' E 002°38'0 0.0
2018-May-28 10:58N 39°33' E 002°38'0 0.0
2018-May-28 10:28N 39°33' E 002°38'0 0.0
2018-May-28 09:58N 39°33' E 002°38'0 0.0
2018-May-28 09:28N 39°33' E 002°38'0 0.0
2018-May-28 08:58N 39°33' E 002°38'0 0.0
2018-May-28 08:28N 39°33' E 002°38'0 0.0
2018-May-28 07:58N 39°33' E 002°38'0 0.0
2018-May-28 07:28N 39°33' E 002°38'0 0.0
2018-May-28 06:58N 39°33' E 002°38'0 0.0
2018-May-28 06:28N 39°33' E 002°38'0 0.0
2018-May-28 05:58N 39°33' E 002°38'0 0.0
2018-May-28 05:28N 39°33' E 002°38'0 0.0
2018-May-28 04:58N 39°33' E 002°38'0 0.0
2018-May-28 04:28N 39°33' E 002°38'0 0.0
2018-May-28 03:58N 39°33' E 002°38'0 0.0
2018-May-28 03:28N 39°33' E 002°38'0 0.0
2018-May-28 02:58N 39°33' E 002°38'0 0.0
2018-May-28 02:28N 39°33' E 002°38'0 0.0
2018-May-28 01:58N 39°33' E 002°38'0 0.0
2018-May-28 01:28N 39°33' E 002°38'0 0.0
2018-May-28 00:58N 39°33' E 002°38'0 0.0
2018-May-28 00:28N 39°33' E 002°38'0 0.0
2018-May-27 23:58N 39°33' E 002°38'0 0.0
2018-May-27 23:28N 39°33' E 002°38'0 0.0
2018-May-27 22:58N 39°33' E 002°38'0 0.0
2018-May-27 22:28N 39°33' E 002°38'0 0.0
2018-May-27 21:58N 39°33' E 002°38'0 0.0
2018-May-27 21:28N 39°33' E 002°38'0 0.0
2018-May-27 20:58N 39°33' E 002°38'0 0.0
2018-May-27 20:28N 39°33' E 002°38'0 0.0
2018-May-27 19:58N 39°33' E 002°38'0 0.0
2018-May-27 19:28N 39°33' E 002°38'0 0.0
2018-May-27 18:55N 39°33' E 002°38'0 0.0
2018-May-27 18:28N 39°33' E 002°38'0 0.0
2018-May-27 17:58N 39°33' E 002°38'0 0.0
2018-May-27 17:28N 39°33' E 002°38'0 0.0
2018-May-27 16:58N 39°33' E 002°38'0 0.0
2018-May-27 16:28N 39°33' E 002°38'0 0.1
2018-May-27 15:58N 39°33' E 002°38'0 0.0
2018-May-27 15:28N 39°33' E 002°38'0 0.0
2018-May-27 14:58N 39°33' E 002°38'0 0.0
2018-May-27 14:28N 39°33' E 002°38'0 0.0
2018-May-27 13:58N 39°33' E 002°38'0 0.0
2018-May-27 13:28N 39°33' E 002°38'0 0.0
2018-May-27 12:58N 39°33' E 002°38'0 0.0
2018-May-27 12:28N 39°33' E 002°38'0 0.0
2018-May-27 11:58N 39°33' E 002°38'0 0.0
2018-May-27 11:28N 39°33' E 002°38'0 0.0
2018-May-27 10:58N 39°33' E 002°38'0 0.0
2018-May-27 10:25N 39°33' E 002°38'0 0.0
2018-May-27 09:58N 39°33' E 002°38'0 0.0
2018-May-27 09:28N 39°33' E 002°38'0 0.0
2018-May-27 08:58N 39°33' E 002°38'0 0.0
2018-May-27 08:28N 39°33' E 002°38'0 0.0
2018-May-27 07:58N 39°33' E 002°38'0 0.0
2018-May-27 07:28N 39°33' E 002°38'0 0.0
2018-May-27 06:58N 39°33' E 002°38'0 0.0
2018-May-27 06:28N 39°33' E 002°38'0 0.0
2018-May-27 05:58N 39°33' E 002°38'0 0.0
2018-May-27 05:28N 39°33' E 002°38'0 0.0
2018-May-27 04:58N 39°33' E 002°38'0 0.0
2018-May-27 04:28N 39°33' E 002°38'0 0.0
2018-May-27 03:58N 39°33' E 002°38'0 0.0
2018-May-27 03:28N 39°33' E 002°38'0 0.0
2018-May-27 02:58N 39°33' E 002°38'0 0.0
2018-May-27 02:28N 39°33' E 002°38'0 0.0
2018-May-27 01:59N 39°33' E 002°38'0 0.0
2018-May-27 01:28N 39°33' E 002°38'0 0.0
2018-May-27 00:58N 39°33' E 002°38'0 0.0
2018-May-27 00:28N 39°33' E 002°38'0 0.0
2018-May-26 23:58N 39°33' E 002°38'0 0.0
2018-May-26 23:28N 39°33' E 002°38'0 0.0
2018-May-26 22:58N 39°33' E 002°38'0 0.0
2018-May-26 22:28N 39°33' E 002°38'0 0.0
2018-May-26 21:58N 39°33' E 002°38'0 0.0
2018-May-26 21:28N 39°33' E 002°38'0 0.0
2018-May-26 20:58N 39°33' E 002°38'0 0.0
2018-May-26 20:28N 39°33' E 002°38'0 0.0
2018-May-26 19:58N 39°33' E 002°38'0 0.0
2018-May-26 19:28N 39°33' E 002°38'0 0.0
2018-May-26 18:58N 39°33' E 002°38'0 0.0
2018-May-26 18:28N 39°33' E 002°38'0 0.0
2018-May-26 17:58N 39°33' E 002°38'0 0.0
2018-May-26 17:28N 39°33' E 002°38'0 0.0
2018-May-26 16:58N 39°33' E 002°38'0 0.0
2018-May-26 16:28N 39°33' E 002°38'0 0.0
2018-May-26 15:58N 39°33' E 002°38'0 0.0
2018-May-26 15:28N 39°33' E 002°38'0 0.0
2018-May-26 14:58N 39°33' E 002°38'0 0.0
2018-May-26 14:28N 39°33' E 002°38'0 0.0
2018-May-26 13:58N 39°33' E 002°38'0 0.0
2018-May-26 13:28N 39°33' E 002°38'0 0.0
2018-May-26 12:58N 39°33' E 002°38'0 0.0
2018-May-26 12:28N 39°33' E 002°38'0 0.0
2018-May-26 11:58N 39°33' E 002°38'0 0.0
2018-May-26 11:28N 39°33' E 002°38'0 0.0
2018-May-26 10:58N 39°33' E 002°38'0 0.0
2018-May-26 10:28N 39°33' E 002°38'0 0.0
2018-May-26 09:58N 39°33' E 002°38'0 0.0
2018-May-26 09:28N 39°33' E 002°38'0 0.0
2018-May-26 08:58N 39°33' E 002°38'0 0.0
2018-May-26 08:28N 39°33' E 002°38'0 0.0
2018-May-26 07:58N 39°33' E 002°38'0 0.0
2018-May-26 07:28N 39°33' E 002°38'0 0.0
2018-May-26 06:58N 39°33' E 002°38'0 0.0
2018-May-26 06:28N 39°33' E 002°38'0 0.0
2018-May-26 05:28N 39°33' E 002°38'0 0.0
2018-May-26 04:58N 39°33' E 002°38'0 0.0
2018-May-26 04:25N 39°33' E 002°38'0 0.0
2018-May-26 03:58N 39°33' E 002°38'0 0.0
2018-May-26 03:28N 39°33' E 002°38'0 0.0
2018-May-26 02:58N 39°33' E 002°38'0 0.0
2018-May-26 02:28N 39°33' E 002°38'0 0.0
2018-May-26 01:58N 39°33' E 002°38'0 0.0
2018-May-26 01:28N 39°33' E 002°38'0 0.0
2018-May-26 00:58N 39°33' E 002°38'0 0.0
2018-May-26 00:28N 39°33' E 002°38'0 0.0
2018-May-25 23:58N 39°33' E 002°38'0 0.0
2018-May-25 23:28N 39°33' E 002°38'0 0.0
2018-May-25 22:58N 39°33' E 002°38'0 0.0
2018-May-25 22:28N 39°33' E 002°38'0 0.0
2018-May-25 21:58N 39°33' E 002°38'0 0.0
2018-May-25 21:28N 39°33' E 002°38'0 0.0
2018-May-25 20:58N 39°33' E 002°38'0 0.0
2018-May-25 20:22N 39°33' E 002°38'0 0.0
2018-May-25 19:58N 39°33' E 002°38'0 0.0
2018-May-25 19:28N 39°33' E 002°38'0 0.0
2018-May-25 18:58N 39°33' E 002°38'0 0.0
2018-May-25 18:28N 39°33' E 002°38'0 0.0
2018-May-25 17:58N 39°33' E 002°38'0 0.0
2018-May-25 17:28N 39°33' E 002°38'0 0.0
2018-May-25 16:58N 39°33' E 002°38'0 0.0
2018-May-25 16:28N 39°33' E 002°38'0 0.0
2018-May-25 15:58N 39°33' E 002°38'0 0.0
2018-May-25 15:28N 39°33' E 002°38'0 0.0
2018-May-25 14:58N 39°33' E 002°38'0 0.0
2018-May-25 14:28N 39°33' E 002°38'0 0.0
2018-May-25 13:58N 39°33' E 002°38'0 0.0
2018-May-25 13:28N 39°33' E 002°38'0 0.0
2018-May-25 12:55N 39°33' E 002°38'0 0.0
2018-May-25 12:28N 39°33' E 002°38'0 0.0
2018-May-25 11:58N 39°33' E 002°38'0 0.0
2018-May-25 11:25N 39°33' E 002°38'0 0.0
2018-May-25 10:58N 39°33' E 002°38'0 0.0
2018-May-25 10:28N 39°33' E 002°38'0 0.0
2018-May-25 09:58N 39°33' E 002°38'0 0.0
2018-May-25 09:28N 39°33' E 002°38'0 0.0
2018-May-25 08:58N 39°33' E 002°38'0 0.0
2018-May-25 08:28N 39°33' E 002°38'0 0.0
2018-May-25 07:58N 39°33' E 002°38'0 0.0
2018-May-25 07:28N 39°33' E 002°38'0 0.0
2018-May-25 06:58N 39°33' E 002°38'0 0.0
2018-May-25 06:28N 39°33' E 002°38'0 0.0
2018-May-25 05:58N 39°33' E 002°38'0 0.0
2018-May-25 05:28N 39°33' E 002°38'0 0.0
2018-May-25 04:58N 39°33' E 002°38'0 0.0
2018-May-25 04:28N 39°33' E 002°38'0 0.0
2018-May-25 03:58N 39°33' E 002°38'0 0.0
2018-May-25 03:28N 39°33' E 002°38'0 0.0
2018-May-25 02:58N 39°33' E 002°38'0 0.0
2018-May-25 02:28N 39°33' E 002°38'0 0.0
2018-May-25 01:58N 39°33' E 002°38'0 0.0
2018-May-25 01:28N 39°33' E 002°38'0 0.0
2018-May-25 00:58N 39°33' E 002°38'0 0.0
2018-May-25 00:28N 39°33' E 002°38'  
Track history (hours):
 
Tides and Currents Weather Stations Pressure Air Temp Water Temp Dewpoint Dewpoint Depression Visibility Wind Speed Wind Dir Waves Ship Positions

Northlander

Last reported at 2018-Jun-04 00:04 UTC. Time now 2018-Jun-24 20:33 UTC.
Position N 37°50' E 015°57'.
Warning: this ship's position is 20 days out of date.

Length 38 m; draft 2.5 m.

Type: Pleasure craft. MMSI: 319078000.

Date/timePositionNaut miles runAvg speedWind from/ knotsBaromVisibWave heightAir tempDewpointWater temp
2018-Jun-04 00:04N 37°50' E 015°57'30 8.8
2018-Jun-03 20:41N 38°15' E 015°37'5 8.3
2018-Jun-03 20:02N 38°20' E 015°40'012.0
2018-Jun-03 20:00N 38°20' E 015°40'100 7.6
2018-Jun-03 06:53N 38°45' E 013°36'512.4
2018-Jun-03 06:30N 38°45' E 013°30'612.6
2018-Jun-03 06:00N 38°46' E 013°22'3412.4
2018-Jun-03 03:16N 38°46' E 012°38'312.0
2018-Jun-03 03:00N 38°46' E 012°34'611.9
2018-Jun-03 02:30N 38°46' E 012°27'43411.7
2018-Jun-01 13:29N 39°12' E 003°09'611.5
2018-Jun-01 13:00N 39°13' E 003°02'611.8
2018-Jun-01 12:29N 39°17' E 002°56'611.8
2018-Jun-01 11:59N 39°20' E 002°49'611.9
2018-Jun-01 11:30N 39°23' E 002°43'611.7
2018-Jun-01 11:00N 39°28' E 002°38'510.0
2018-Jun-01 10:30N 39°31' E 002°34'0 0.7
2018-Jun-01 10:00N 39°32' E 002°34'2 4.8
2018-Jun-01 09:29N 39°32' E 002°37'2 4.7
2018-Jun-01 08:59N 39°32' E 002°40'1 1.1
2018-Jun-01 08:30N 39°32' E 002°39'4 6.7
2018-Jun-01 07:59N 39°31' E 002°35'1 2.0
2018-Jun-01 07:26N 39°32' E 002°33'0 0.0
2018-Jun-01 06:59N 39°32' E 002°33'0 0.0
2018-Jun-01 06:29N 39°32' E 002°33'0 0.0
2018-Jun-01 05:56N 39°32' E 002°33'0 0.0
2018-Jun-01 05:29N 39°32' E 002°33'0 0.0
2018-Jun-01 04:59N 39°32' E 002°33'0 0.0
2018-Jun-01 04:26N 39°32' E 002°33'0 0.0
2018-Jun-01 03:59N 39°32' E 002°33'0 0.0
2018-Jun-01 03:29N 39°32' E 002°33'0 0.0
2018-Jun-01 02:59N 39°32' E 002°33'0 0.0
2018-Jun-01 02:29N 39°32' E 002°33'0 0.0
2018-Jun-01 01:59N 39°32' E 002°33'0 0.0
2018-Jun-01 01:29N 39°32' E 002°33'0 0.0
2018-Jun-01 00:59N 39°32' E 002°33'0 0.0
2018-Jun-01 00:29N 39°32' E 002°33'0 0.0
2018-May-31 23:59N 39°32' E 002°33'0 0.0
2018-May-31 23:29N 39°32' E 002°33'0 0.0
2018-May-31 22:59N 39°32' E 002°33'0 0.0
2018-May-31 22:29N 39°32' E 002°33'0 0.0
2018-May-31 21:59N 39°32' E 002°33'0 0.0
2018-May-31 21:29N 39°32' E 002°34'0 0.0
2018-May-31 20:59N 39°32' E 002°33'0 0.0
2018-May-31 20:29N 39°32' E 002°33'0 0.0
2018-May-31 19:59N 39°32' E 002°34'0 0.0
2018-May-31 19:29N 39°32' E 002°34'0 0.0
2018-May-31 18:56N 39°32' E 002°33'0 0.0
2018-May-31 18:29N 39°32' E 002°33'0 0.1
2018-May-31 17:59N 39°32' E 002°34'0 0.0
2018-May-31 17:23N 39°32' E 002°34'0 0.1
2018-May-31 16:59N 39°32' E 002°33'0 0.0
2018-May-31 16:26N 39°32' E 002°34'0 0.0
2018-May-31 15:59N 39°32' E 002°34'0 0.0
2018-May-31 15:29N 39°32' E 002°34'0 0.0
2018-May-31 14:59N 39°32' E 002°34'1 2.6
2018-May-31 14:30N 39°31' E 002°35'3 6.1
2018-May-31 14:00N 39°33' E 002°38'1 1.3
2018-May-31 13:29N 39°33' E 002°38'0 0.0
2018-May-31 12:59N 39°33' E 002°38'0 0.0
2018-May-31 12:29N 39°33' E 002°38'0 0.0
2018-May-31 11:59N 39°33' E 002°38'0 0.0
2018-May-31 11:29N 39°33' E 002°38'0 0.0
2018-May-31 10:59N 39°33' E 002°38'0 0.0
2018-May-31 10:29N 39°33' E 002°38'0 0.0
2018-May-31 09:59N 39°33' E 002°38'0 0.0
2018-May-31 09:29N 39°33' E 002°38'0 0.0
2018-May-31 08:59N 39°33' E 002°38'0 0.0
2018-May-31 08:29N 39°33' E 002°38'0 0.0
2018-May-31 07:59N 39°33' E 002°38'0 0.0
2018-May-31 07:29N 39°33' E 002°38'0 0.0
2018-May-31 06:59N 39°33' E 002°38'0 0.0
2018-May-31 06:29N 39°33' E 002°38'0 0.0
2018-May-31 05:59N 39°33' E 002°38'0 0.0
2018-May-31 05:29N 39°33' E 002°38'0 0.0
2018-May-31 05:00N 39°33' E 002°38'0 0.0
2018-May-31 04:28N 39°33' E 002°38'0 0.0
2018-May-31 03:59N 39°33' E 002°38'0 0.0
2018-May-31 03:29N 39°33' E 002°38'0 0.0
2018-May-31 02:59N 39°33' E 002°38'0 0.0
2018-May-31 02:29N 39°33' E 002°38'0 0.0
2018-May-31 01:59N 39°33' E 002°38'0 0.0
2018-May-31 01:30N 39°33' E 002°38'0 0.0
2018-May-31 01:00N 39°33' E 002°38'0 0.0
2018-May-31 00:30N 39°33' E 002°38'0 0.0
2018-May-31 00:00N 39°33' E 002°38'0 0.0
2018-May-30 23:30N 39°33' E 002°38'0 0.0
2018-May-30 23:00N 39°33' E 002°38'0 0.0
2018-May-30 22:30N 39°33' E 002°38'0 0.0
2018-May-30 22:00N 39°33' E 002°38'0 0.0
2018-May-30 21:30N 39°33' E 002°38'0 0.0
2018-May-30 21:00N 39°33' E 002°38'0 0.0
2018-May-30 20:30N 39°33' E 002°38'0 0.0
2018-May-30 20:00N 39°33' E 002°38'0 0.0
2018-May-30 19:30N 39°33' E 002°38'0 0.0
2018-May-30 19:00N 39°33' E 002°38'0 0.0
2018-May-30 18:30N 39°33' E 002°38'0 0.0
2018-May-30 17:54N 39°33' E 002°38'0 0.0
2018-May-30 17:27N 39°33' E 002°38'0 0.0
2018-May-30 17:00N 39°33' E 002°38'0 0.0
2018-May-30 16:30N 39°33' E 002°38'0 0.0
2018-May-30 16:00N 39°33' E 002°38'0 0.0
2018-May-30 15:30N 39°33' E 002°38'0 0.0
2018-May-30 15:00N 39°33' E 002°38'0 0.0
2018-May-30 14:30N 39°33' E 002°38'0 0.0
2018-May-30 14:00N 39°33' E 002°38'0 0.0
2018-May-30 13:30N 39°33' E 002°38'0 0.0
2018-May-30 13:00N 39°33' E 002°38'0 0.0
2018-May-30 12:30N 39°33' E 002°38'0 0.0
2018-May-30 12:00N 39°33' E 002°38'0 0.0
2018-May-30 11:30N 39°33' E 002°38'0 0.0
2018-May-30 11:00N 39°33' E 002°38'0 0.0
2018-May-30 10:24N 39°33' E 002°38'0 0.0
2018-May-30 10:00N 39°33' E 002°38'0 0.0
2018-May-30 09:30N 39°33' E 002°38'0 0.0
2018-May-30 09:00N 39°33' E 002°38'0 0.0
2018-May-30 08:27N 39°33' E 002°38'0 0.0
2018-May-30 08:00N 39°33' E 002°38'0 0.0
2018-May-30 07:30N 39°33' E 002°38'0 0.0
2018-May-30 07:00N 39°33' E 002°38'0 0.0
2018-May-30 06:30N 39°33' E 002°38'0 0.0
2018-May-30 06:00N 39°33' E 002°38'0 0.0
2018-May-30 05:30N 39°33' E 002°38'0 0.0
2018-May-30 05:00N 39°33' E 002°38'0 0.0
2018-May-30 04:30N 39°33' E 002°38'0 0.0
2018-May-30 04:00N 39°33' E 002°38'0 0.0
2018-May-30 03:30N 39°33' E 002°38'0 0.0
2018-May-30 03:00N 39°33' E 002°38'0 0.0
2018-May-30 02:30N 39°33' E 002°38'0 0.0
2018-May-30 02:00N 39°33' E 002°38'0 0.0
2018-May-30 01:30N 39°33' E 002°38'0 0.0
2018-May-30 01:00N 39°33' E 002°38'0 0.0
2018-May-30 00:30N 39°33' E 002°38'0 0.0
2018-May-30 00:00N 39°33' E 002°38'0 0.0
2018-May-29 23:30N 39°33' E 002°38'0 0.0
2018-May-29 23:00N 39°33' E 002°38'0 0.0
2018-May-29 22:30N 39°33' E 002°38'0 0.0
2018-May-29 22:00N 39°33' E 002°38'0 0.0
2018-May-29 21:30N 39°33' E 002°38'0 0.0
2018-May-29 21:00N 39°33' E 002°38'0 0.0
2018-May-29 20:30N 39°33' E 002°38'0 0.0
2018-May-29 20:00N 39°33' E 002°38'0 0.0
2018-May-29 19:30N 39°33' E 002°38'0 0.0
2018-May-29 19:00N 39°33' E 002°38'0 0.0
2018-May-29 18:30N 39°33' E 002°38'0 0.0
2018-May-29 18:00N 39°33' E 002°38'0 0.0
2018-May-29 17:30N 39°33' E 002°38'0 0.0
2018-May-29 17:00N 39°33' E 002°38'0 0.0
2018-May-29 16:30N 39°33' E 002°38'0 0.0
2018-May-29 16:00N 39°33' E 002°38'0 0.0
2018-May-29 15:30N 39°33' E 002°38'0 0.0
2018-May-29 15:00N 39°33' E 002°38'0 0.0
2018-May-29 14:30N 39°33' E 002°38'0 0.0
2018-May-29 14:00N 39°33' E 002°38'0 0.0
2018-May-29 13:30N 39°33' E 002°38'0 0.1
2018-May-29 13:00N 39°33' E 002°38'0 0.0
2018-May-29 12:30N 39°33' E 002°38'0 0.0
2018-May-29 12:00N 39°33' E 002°38'0 0.0
2018-May-29 11:27N 39°33' E 002°38'0 0.0
2018-May-29 11:00N 39°33' E 002°38'0 0.0
2018-May-29 10:30N 39°33' E 002°38'0 0.0
2018-May-29 10:00N 39°33' E 002°38'0 0.0
2018-May-29 09:30N 39°33' E 002°38'0 0.0
2018-May-29 09:00N 39°33' E 002°38'0 0.0
2018-May-29 08:30N 39°33' E 002°38'0 0.0
2018-May-29 08:00N 39°33' E 002°38'0 0.0
2018-May-29 07:24N 39°33' E 002°38'0 0.1
2018-May-29 07:00N 39°33' E 002°38'0 0.0
2018-May-29 06:30N 39°33' E 002°38'0 0.0
2018-May-29 06:00N 39°33' E 002°38'0 0.0
2018-May-29 05:30N 39°33' E 002°38'0 0.0
2018-May-29 05:00N 39°33' E 002°38'0 0.0
2018-May-29 04:28N 39°33' E 002°38'0 0.0
2018-May-29 03:58N 39°33' E 002°38'0 0.0
2018-May-29 03:28N 39°33' E 002°38'0 0.0
2018-May-29 02:58N 39°33' E 002°38'0 0.0
2018-May-29 02:28N 39°33' E 002°38'0 0.0
2018-May-29 01:58N 39°33' E 002°38'0 0.0
2018-May-29 01:28N 39°33' E 002°38'0 0.0
2018-May-29 00:58N 39°33' E 002°38'0 0.0
2018-May-29 00:28N 39°33' E 002°38'0 0.0
2018-May-28 23:58N 39°33' E 002°38'0 0.0
2018-May-28 23:25N 39°33' E 002°38'0 0.0
2018-May-28 22:55N 39°33' E 002°38'0 0.0
2018-May-28 22:28N 39°33' E 002°38'0 0.0
2018-May-28 21:58N 39°33' E 002°38'0 0.0
2018-May-28 21:28N 39°33' E 002°38'0 0.0
2018-May-28 20:58N 39°33' E 002°38'0 0.0
2018-May-28 20:25N 39°33' E 002°38'0 0.0
2018-May-28 19:58N 39°33' E 002°38'0 0.0
2018-May-28 19:28N 39°33' E 002°38'0 0.0
2018-May-28 18:58N 39°33' E 002°38'0 0.0
2018-May-28 18:28N 39°33' E 002°38'0 0.0
2018-May-28 17:58N 39°33' E 002°38'0 0.0
2018-May-28 17:28N 39°33' E 002°38'0 0.0
2018-May-28 16:55N 39°33' E 002°38'0 0.0
2018-May-28 16:28N 39°33' E 002°38'0 0.0
2018-May-28 15:58N 39°33' E 002°38'0 0.0
2018-May-28 15:28N 39°33' E 002°38'0 0.0
2018-May-28 14:58N 39°33' E 002°38'0 0.0
2018-May-28 14:28N 39°33' E 002°38'0 0.0
2018-May-28 13:58N 39°33' E 002°38'0 0.0
2018-May-28 13:28N 39°33' E 002°38'0 0.0
2018-May-28 12:58N 39°33' E 002°38'0 0.0
2018-May-28 12:28N 39°33' E 002°38'0 0.0
2018-May-28 11:58N 39°33' E 002°38'0 0.0
2018-May-28 11:28N 39°33' E 002°38'0 0.0
2018-May-28 10:58N 39°33' E 002°38'0 0.0
2018-May-28 10:28N 39°33' E 002°38'0 0.0
2018-May-28 09:58N 39°33' E 002°38'0 0.0
2018-May-28 09:28N 39°33' E 002°38'0 0.0
2018-May-28 08:58N 39°33' E 002°38'0 0.0
2018-May-28 08:28N 39°33' E 002°38'0 0.0
2018-May-28 07:58N 39°33' E 002°38'0 0.0
2018-May-28 07:28N 39°33' E 002°38'0 0.0
2018-May-28 06:58N 39°33' E 002°38'0 0.0
2018-May-28 06:28N 39°33' E 002°38'0 0.0
2018-May-28 05:58N 39°33' E 002°38'0 0.0
2018-May-28 05:28N 39°33' E 002°38'0 0.0
2018-May-28 04:58N 39°33' E 002°38'0 0.0
2018-May-28 04:28N 39°33' E 002°38'0 0.0
2018-May-28 03:58N 39°33' E 002°38'0 0.0
2018-May-28 03:28N 39°33' E 002°38'0 0.0
2018-May-28 02:58N 39°33' E 002°38'0 0.0
2018-May-28 02:28N 39°33' E 002°38'0 0.0
2018-May-28 01:58N 39°33' E 002°38'0 0.0
2018-May-28 01:28N 39°33' E 002°38'0 0.0
2018-May-28 00:58N 39°33' E 002°38'0 0.0
2018-May-28 00:28N 39°33' E 002°38'0 0.0
2018-May-27 23:58N 39°33' E 002°38'0 0.0
2018-May-27 23:28N 39°33' E 002°38'0 0.0
2018-May-27 22:58N 39°33' E 002°38'0 0.0
2018-May-27 22:28N 39°33' E 002°38'0 0.0
2018-May-27 21:58N 39°33' E 002°38'0 0.0
2018-May-27 21:28N 39°33' E 002°38'0 0.0
2018-May-27 20:58N 39°33' E 002°38'0 0.0
2018-May-27 20:28N 39°33' E 002°38'0 0.0
2018-May-27 19:58N 39°33' E 002°38'0 0.0
2018-May-27 19:28N 39°33' E 002°38'0 0.0
2018-May-27 18:55N 39°33' E 002°38'0 0.0
2018-May-27 18:28N 39°33' E 002°38'0 0.0
2018-May-27 17:58N 39°33' E 002°38'0 0.0
2018-May-27 17:28N 39°33' E 002°38'0 0.0
2018-May-27 16:58N 39°33' E 002°38'0 0.0
2018-May-27 16:28N 39°33' E 002°38'0 0.1
2018-May-27 15:58N 39°33' E 002°38'0 0.0
2018-May-27 15:28N 39°33' E 002°38'0 0.0
2018-May-27 14:58N 39°33' E 002°38'0 0.0
2018-May-27 14:28N 39°33' E 002°38'0 0.0
2018-May-27 13:58N 39°33' E 002°38'0 0.0
2018-May-27 13:28N 39°33' E 002°38'0 0.0
2018-May-27 12:58N 39°33' E 002°38'0 0.0
2018-May-27 12:28N 39°33' E 002°38'0 0.0
2018-May-27 11:58N 39°33' E 002°38'0 0.0
2018-May-27 11:28N 39°33' E 002°38'0 0.0
2018-May-27 10:58N 39°33' E 002°38'0 0.0
2018-May-27 10:25N 39°33' E 002°38'0 0.0
2018-May-27 09:58N 39°33' E 002°38'0 0.0
2018-May-27 09:28N 39°33' E 002°38'0 0.0
2018-May-27 08:58N 39°33' E 002°38'0 0.0
2018-May-27 08:28N 39°33' E 002°38'0 0.0
2018-May-27 07:58N 39°33' E 002°38'0 0.0
2018-May-27 07:28N 39°33' E 002°38'0 0.0
2018-May-27 06:58N 39°33' E 002°38'0 0.0
2018-May-27 06:28N 39°33' E 002°38'0 0.0
2018-May-27 05:58N 39°33' E 002°38'0 0.0
2018-May-27 05:28N 39°33' E 002°38'0 0.0
2018-May-27 04:58N 39°33' E 002°38'0 0.0
2018-May-27 04:28N 39°33' E 002°38'0 0.0
2018-May-27 03:58N 39°33' E 002°38'0 0.0
2018-May-27 03:28N 39°33' E 002°38'0 0.0
2018-May-27 02:58N 39°33' E 002°38'0 0.0
2018-May-27 02:28N 39°33' E 002°38'0 0.0
2018-May-27 01:59N 39°33' E 002°38'0 0.0
2018-May-27 01:28N 39°33' E 002°38'0 0.0
2018-May-27 00:58N 39°33' E 002°38'0 0.0
2018-May-27 00:28N 39°33' E 002°38'0 0.0
2018-May-26 23:58N 39°33' E 002°38'0 0.0
2018-May-26 23:28N 39°33' E 002°38'0 0.0
2018-May-26 22:58N 39°33' E 002°38'0 0.0
2018-May-26 22:28N 39°33' E 002°38'0 0.0
2018-May-26 21:58N 39°33' E 002°38'0 0.0
2018-May-26 21:28N 39°33' E 002°38'0 0.0
2018-May-26 20:58N 39°33' E 002°38'0 0.0
2018-May-26 20:28N 39°33' E 002°38'0 0.0
2018-May-26 19:58N 39°33' E 002°38'0 0.0
2018-May-26 19:28N 39°33' E 002°38'0 0.0
2018-May-26 18:58N 39°33' E 002°38'0 0.0
2018-May-26 18:28N 39°33' E 002°38'0 0.0
2018-May-26 17:58N 39°33' E 002°38'0 0.0
2018-May-26 17:28N 39°33' E 002°38'0 0.0
2018-May-26 16:58N 39°33' E 002°38'0 0.0
2018-May-26 16:28N 39°33' E 002°38'0 0.0
2018-May-26 15:58N 39°33' E 002°38'0 0.0
2018-May-26 15:28N 39°33' E 002°38'0 0.0
2018-May-26 14:58N 39°33' E 002°38'0 0.0
2018-May-26 14:28N 39°33' E 002°38'0 0.0
2018-May-26 13:58N 39°33' E 002°38'0 0.0
2018-May-26 13:28N 39°33' E 002°38'0 0.0
2018-May-26 12:58N 39°33' E 002°38'0 0.0
2018-May-26 12:28N 39°33' E 002°38'0 0.0
2018-May-26 11:58N 39°33' E 002°38'0 0.0
2018-May-26 11:28N 39°33' E 002°38'0 0.0
2018-May-26 10:58N 39°33' E 002°38'0 0.0
2018-May-26 10:28N 39°33' E 002°38'0 0.0
2018-May-26 09:58N 39°33' E 002°38'0 0.0
2018-May-26 09:28N 39°33' E 002°38'0 0.0
2018-May-26 08:58N 39°33' E 002°38'0 0.0
2018-May-26 08:28N 39°33' E 002°38'0 0.0
2018-May-26 07:58N 39°33' E 002°38'0 0.0
2018-May-26 07:28N 39°33' E 002°38'0 0.0
2018-May-26 06:58N 39°33' E 002°38'0 0.0
2018-May-26 06:28N 39°33' E 002°38'0 0.0
2018-May-26 05:28N 39°33' E 002°38'0 0.0
2018-May-26 04:58N 39°33' E 002°38'0 0.0
2018-May-26 04:25N 39°33' E 002°38'0 0.0
2018-May-26 03:58N 39°33' E 002°38'0 0.0
2018-May-26 03:28N 39°33' E 002°38'0 0.0
2018-May-26 02:58N 39°33' E 002°38'0 0.0
2018-May-26 02:28N 39°33' E 002°38'0 0.0
2018-May-26 01:58N 39°33' E 002°38'0 0.0
2018-May-26 01:28N 39°33' E 002°38'0 0.0
2018-May-26 00:58N 39°33' E 002°38'0 0.0
2018-May-26 00:28N 39°33' E 002°38'0 0.0
2018-May-25 23:58N 39°33' E 002°38'0 0.0
2018-May-25 23:28N 39°33' E 002°38'0 0.0
2018-May-25 22:58N 39°33' E 002°38'0 0.0
2018-May-25 22:28N 39°33' E 002°38'0 0.0
2018-May-25 21:58N 39°33' E 002°38'0 0.0
2018-May-25 21:28N 39°33' E 002°38'0 0.0
2018-May-25 20:58N 39°33' E 002°38'0 0.0
2018-May-25 20:22N 39°33' E 002°38'0 0.0
2018-May-25 19:58N 39°33' E 002°38'0 0.0
2018-May-25 19:28N 39°33' E 002°38'0 0.0
2018-May-25 18:58N 39°33' E 002°38'0 0.0
2018-May-25 18:28N 39°33' E 002°38'0 0.0
2018-May-25 17:58N 39°33' E 002°38'0 0.0
2018-May-25 17:28N 39°33' E 002°38'0 0.0
2018-May-25 16:58N 39°33' E 002°38'0 0.0
2018-May-25 16:28N 39°33' E 002°38'0 0.0
2018-May-25 15:58N 39°33' E 002°38'0 0.0
2018-May-25 15:28N 39°33' E 002°38'0 0.0
2018-May-25 14:58N 39°33' E 002°38'0 0.0
2018-May-25 14:28N 39°33' E 002°38'0 0.0
2018-May-25 13:58N 39°33' E 002°38'0 0.0
2018-May-25 13:28N 39°33' E 002°38'0 0.0
2018-May-25 12:55N 39°33' E 002°38'0 0.0
2018-May-25 12:28N 39°33' E 002°38'0 0.0
2018-May-25 11:58N 39°33' E 002°38'0 0.0
2018-May-25 11:25N 39°33' E 002°38'0 0.0
2018-May-25 10:58N 39°33' E 002°38'0 0.0
2018-May-25 10:28N 39°33' E 002°38'0 0.0
2018-May-25 09:58N 39°33' E 002°38'0 0.0
2018-May-25 09:28N 39°33' E 002°38'0 0.0
2018-May-25 08:58N 39°33' E 002°38'0 0.0
2018-May-25 08:28N 39°33' E 002°38'0 0.0
2018-May-25 07:58N 39°33' E 002°38'0 0.0
2018-May-25 07:28N 39°33' E 002°38'0 0.0
2018-May-25 06:58N 39°33' E 002°38'0 0.0
2018-May-25 06:28N 39°33' E 002°38'0 0.0
2018-May-25 05:58N 39°33' E 002°38'0 0.0
2018-May-25 05:28N 39°33' E 002°38'0 0.0
2018-May-25 04:58N 39°33' E 002°38'0 0.0
2018-May-25 04:28N 39°33' E 002°38'0 0.0
2018-May-25 03:58N 39°33' E 002°38'0 0.0
2018-May-25 03:28N 39°33' E 002°38'0 0.0
2018-May-25 02:58N 39°33' E 002°38'0 0.0
2018-May-25 02:28N 39°33' E 002°38'0 0.0
2018-May-25 01:58N 39°33' E 002°38'0 0.0
2018-May-25 01:28N 39°33' E 002°38'0 0.0
2018-May-25 00:58N 39°33' E 002°38'0 0.0
2018-May-25 00:28N 39°33' E 002°38'  

Dump ship's entire track history